Terminal Aerodrome Forecast
Issued by NWS Louisville, KY

Home | Current Version | Previous Version | Text Only | Print | Product List | Glossary On
Versions: 1 2 3 4 5 6 7 8 9 10 11 12 13 14 15
362
FTUS43 KLMK 141120
TAFSDF
TAF
KSDF 141120Z 1412/1518 VRB04KT P6SM VCSH BKN045
     FM141600 15004KT P6SM SCT035 BKN050
     FM150800 00000KT 6SM BR FEW030 SCT045=

USA.gov is the U.S. government's official web portal to all federal, state and local government web resources and services.